Time;durP1;ratioP1;P1;durP2;ratioP2;P2;SDS_P1;SDS_P2;PMS_P1;PMS_P2;Temp;Humidity;BMP_temperature;BMP_pressure;BME280_temperature;BME280_humidity;BME280_pressure;Samples;Min_cycle;Max_cycle;Signal;HPM_P1;HPM_P2
2022/12/07 00:01:23;;;;;;;11.75;2.92;;;;;;;3.90;100.00;102048.44;5100004;28;20048;-86
2022/12/07 00:03:52;;;;;;;11.18;2.38;;;;;;;3.73;100.00;102044.78;5084579;28;20089;-85
2022/12/07 00:06:20;;;;;;;6.53;1.75;;;;;;;3.77;100.00;102033.59;5089403;28;20055;-86
2022/12/07 00:08:47;;;;;;;8.38;3.22;;;;;;;3.91;100.00;102051.91;5098719;28;20056;-85
2022/12/07 00:11:17;;;;;;;11.88;3.00;;;;;;;3.82;100.00;102041.44;5087059;28;20052;-86
2022/12/07 00:13:45;;;;;;;13.00;3.35;;;;;;;4.00;100.00;102044.22;5086526;28;20052;-85
2022/12/07 00:16:14;;;;;;;10.80;2.63;;;;;;;3.89;100.00;102049.28;5089630;28;20044;-85
2022/12/07 00:18:42;;;;;;;9.27;2.50;;;;;;;3.84;100.00;102032.81;5091188;28;20052;-85
2022/12/07 00:21:10;;;;;;;10.38;2.40;;;;;;;3.70;100.00;102026.63;5084325;28;20105;-85
2022/12/07 00:23:38;;;;;;;10.65;2.17;;;;;;;3.73;100.00;102044.78;5083650;28;20044;-85
2022/12/07 00:26:16;;;;;;;15.05;3.47;;;;;;;3.71;100.00;102044.78;5089057;28;20481;-85
2022/12/07 00:28:51;;;;;;;14.75;2.47;;;;;;;3.80;100.00;102031.06;5084784;28;20056;-86
2022/12/07 00:31:20;;;;;;;7.40;2.15;;;;;;;3.68;100.00;102005.00;5080488;28;20097;-85
2022/12/07 00:33:46;;;;;;;9.07;2.30;;;;;;;3.29;100.00;101982.97;5088403;28;20087;-85
2022/12/07 00:36:17;;;;;;;8.48;2.05;;;;;;;3.55;100.00;101985.88;5085673;28;20043;-85
2022/12/07 00:38:52;;;;;;;7.63;2.13;;;;;;;3.74;100.00;102020.63;5084036;28;20141;-85
2022/12/07 00:41:20;;;;;;;8.05;2.03;;;;;;;3.87;100.00;102019.91;5088871;28;20051;-85
2022/12/07 00:43:48;;;;;;;11.55;2.22;;;;;;;3.53;100.00;101970.31;5087220;28;20044;-84
2022/12/07 00:46:16;;;;;;;12.02;2.67;;;;;;;3.54;100.00;101981.53;5088007;28;20101;-85
2022/12/07 00:48:43;;;;;;;11.00;2.22;;;;;;;3.60;100.00;102018.75;5087792;28;20044;-85
2022/12/07 00:51:12;;;;;;;15.75;3.25;;;;;;;3.78;100.00;102023.25;5085783;28;20044;-85
2022/12/07 00:53:39;;;;;;;20.05;3.13;;;;;;;3.77;100.00;102025.84;5106490;28;20109;-85
2022/12/07 00:56:28;;;;;;;13.73;3.55;;;;;;;3.49;100.00;101980.63;5090961;28;20051;-85
2022/12/07 00:59:00;;;;;;;9.55;2.63;;;;;;;3.63;100.00;102017.94;5106616;28;20485;-85
2022/12/07 01:01:30;;;;;;;10.65;2.60;;;;;;;3.77;100.00;102015.47;5091357;28;20044;-85
2022/12/07 01:03:57;;;;;;;9.27;2.13;;;;;;;3.69;100.00;101978.25;5089138;28;20135;-85
2022/12/07 01:06:25;;;;;;;10.18;2.65;;;;;;;3.90;100.00;102004.41;5086873;28;20052;-85
2022/12/07 01:08:52;;;;;;;8.25;2.47;;;;;;;3.70;100.00;101978.28;5102363;28;20876;-85
2022/12/07 01:11:22;;;;;;;9.05;2.75;;;;;;;3.56;100.00;102010.91;5081472;28;20044;-84
2022/12/07 01:13:53;;;;;;;13.10;3.00;;;;;;;3.70;100.00;102006.78;5087714;28;20118;-85
2022/12/07 01:16:20;;;;;;;13.32;2.30;;;;;;;3.71;100.00;102013.69;5090295;28;20121;-85
2022/12/07 01:18:50;;;;;;;12.75;3.33;;;;;;;3.82;100.00;102002.56;5089597;28;20224;-85
2022/12/07 01:21:20;;;;;;;6.40;2.17;;;;;;;3.92;100.00;101989.72;5091673;28;20048;-85
2022/12/07 01:23:47;;;;;;;8.48;2.03;;;;;;;4.01;100.00;101985.50;5090554;28;20059;-85
2022/12/07 01:26:18;;;;;;;15.27;2.47;;;;;;;4.02;100.00;101980.34;5084180;28;20043;-84
2022/12/07 01:28:45;;;;;;;11.73;2.38;;;;;;;3.91;100.00;101962.09;5098938;28;20048;-84
2022/12/07 01:31:15;;;;;;;9.07;2.17;;;;;;;3.77;100.00;101974.91;5091588;28;20121;-85
2022/12/07 01:33:44;;;;;;;14.70;2.85;;;;;;;3.88;100.00;101969.84;5089975;28;20048;-84
2022/12/07 01:36:17;;;;;;;16.23;3.45;;;;;;;3.77;100.00;101971.44;5091566;28;20109;-84
2022/12/07 01:38:45;;;;;;;12.82;4.07;;;;;;;3.87;100.00;101962.91;5090192;28;20055;-85
2022/12/07 01:41:12;;;;;;;11.10;2.50;;;;;;;3.91;100.00;101953.44;5090076;28;20504;-85
2022/12/07 01:44:16;;;;;;;10.32;1.88;;;;;;;4.01;100.00;101973.41;5092028;28;20447;-84
2022/12/07 01:47:04;;;;;;;8.18;2.35;;;;;;;3.80;100.00;101974.06;5076478;28;20051;-84
2022/12/07 01:49:44;;;;;;;9.20;4.05;;;;;;;3.99;100.00;101957.84;5076404;28;20109;-85
2022/12/07 01:52:20;;;;;;;13.95;3.08;;;;;;;3.99;100.00;101947.47;5090690;28;20040;-85
2022/12/07 01:54:48;;;;;;;14.75;2.78;;;;;;;4.05;100.00;101966.53;5089861;28;20063;-85
2022/12/07 01:57:17;;;;;;;13.50;2.97;;;;;;;3.91;100.00;101969.88;5090590;28;20094;-85
2022/12/07 01:59:47;;;;;;;14.85;3.22;;;;;;;3.91;100.00;101959.50;5107047;28;20485;-85
2022/12/07 02:02:20;;;;;;;9.10;2.45;;;;;;;4.12;100.00;101950.16;5090874;28;20040;-85
2022/12/07 02:04:47;;;;;;;18.27;2.58;;;;;;;4.13;100.00;101945.00;5098934;28;20056;-85
2022/12/07 02:07:14;;;;;;;13.43;2.63;;;;;;;4.02;100.00;101957.00;5090103;28;20052;-85
2022/12/07 02:09:41;;;;;;;12.35;2.47;;;;;;;4.12;100.00;101938.06;5089505;28;20048;-83
2022/12/07 02:12:08;;;;;;;10.77;1.98;;;;;;;3.99;100.00;101937.09;5089962;28;20040;-85
2022/12/07 02:14:35;;;;;;;13.55;3.38;;;;;;;3.88;100.00;101945.63;5091483;28;20109;-85
2022/12/07 02:17:20;;;;;;;11.55;2.55;;;;;;;4.15;100.00;101945.88;5089778;28;20101;-84
2022/12/07 02:20:21;;;;;;;9.13;2.13;;;;;;;4.08;100.00;101949.28;5090187;28;20052;-85
2022/12/07 02:23:15;;;;;;;9.43;2.15;;;;;;;4.18;100.00;101943.31;5089823;28;20044;-85
2022/12/07 02:25:48;;;;;;;9.27;2.97;;;;;;;4.21;100.00;101944.19;5101707;28;20082;-85
2022/12/07 02:28:27;;;;;;;12.65;2.50;;;;;;;4.38;100.00;101940.88;5090153;28;20109;-85
2022/12/07 02:30:59;;;;;;;12.32;2.30;;;;;;;4.33;100.00;101924.41;5090860;28;20052;-84
2022/12/07 02:33:35;;;;;;;17.05;3.80;;;;;;;4.34;100.00;101920.97;5089898;28;20048;-84
2022/12/07 02:36:11;;;;;;;12.57;2.30;;;;;;;4.16;100.00;101898.38;5106854;28;20051;-84
2022/12/07 02:38:50;;;;;;;10.90;2.35;;;;;;;4.39;100.00;101928.75;5089380;28;20443;-85
2022/12/07 02:41:24;;;;;;;11.70;2.50;;;;;;;4.29;100.00;101925.25;5089286;28;20040;-84
2022/12/07 02:43:55;;;;;;;16.83;2.78;;;;;;;4.10;100.00;101907.81;5090945;28;20048;-85
2022/12/07 02:46:27;;;;;;;12.32;3.63;;;;;;;4.10;100.00;101907.81;5085261;28;20114;-85
2022/12/07 02:48:55;;;;;;;15.88;3.65;;;;;;;4.33;100.00;101908.84;5087073;28;20048;-85
2022/12/07 02:51:22;;;;;;;11.25;2.60;;;;;;;4.52;100.00;101920.22;5089555;28;20059;-85
2022/12/07 02:53:49;;;;;;;8.38;3.33;;;;;;;4.13;100.00;101889.72;5092217;28;20105;-85
2022/12/07 02:56:30;;;;;;;15.80;2.90;;;;;;;4.11;100.00;101922.53;5094406;28;20048;-85
2022/12/07 02:59:12;;;;;;;17.33;2.88;;;;;;;4.48;100.00;101923.66;5093329;28;20097;-84
2022/12/07 03:01:55;;;;;;;12.65;2.70;;;;;;;4.54;100.00;101904.66;5102075;28;20753;-84
2022/12/07 03:04:42;;;;;;;10.38;2.33;;;;;;;4.39;100.00;101905.41;5085292;28;20095;-85
2022/12/07 03:07:33;;;;;;;12.95;2.55;;;;;;;4.49;100.00;101914.16;5091581;28;20052;-85
2022/12/07 03:10:09;;;;;;;9.07;2.40;;;;;;;4.32;100.00;101911.44;5088377;28;20094;-85
2022/12/07 03:12:47;;;;;;;9.55;2.47;;;;;;;4.43;100.00;101901.16;5087501;28;20040;-85
2022/12/07 03:15:20;;;;;;;10.48;2.30;;;;;;;4.34;100.00;101873.44;5086027;28;20105;-85
2022/12/07 03:17:50;;;;;;;13.38;2.30;;;;;;;4.45;100.00;101912.41;5087243;28;20109;-85
2022/12/07 03:20:21;;;;;;;11.20;1.98;;;;;;;4.42;100.00;101889.03;5086747;28;20052;-85
2022/12/07 03:22:51;;;;;;;10.70;2.55;;;;;;;4.32;100.00;101859.56;5089994;28;20094;-85
2022/12/07 03:25:18;;;;;;;11.80;1.90;;;;;;;4.58;100.00;101927.16;5088561;28;20452;-85
2022/12/07 03:27:53;;;;;;;10.35;2.25;;;;;;;4.51;100.00;101922.81;5091912;28;20056;-85
2022/12/07 03:30:30;;;;;;;12.05;2.95;;;;;;;4.63;100.00;101927.22;5092841;28;20044;-86
2022/12/07 03:33:10;;;;;;;10.45;2.03;;;;;;;4.27;100.00;101923.53;5092743;28;20551;-87
2022/12/07 03:35:39;;;;;;;11.77;2.42;;;;;;;4.10;100.00;101915.59;5094187;28;20101;-88
2022/12/07 03:38:23;;;;;;;12.68;2.35;;;;;;;4.27;100.00;101921.78;5092297;28;20133;-87
2022/12/07 03:41:04;;;;;;;10.18;2.33;;;;;;;3.71;100.00;101885.91;5091872;28;20047;-87
2022/12/07 03:43:32;;;;;;;11.07;2.70;;;;;;;4.11;100.00;101918.19;5096954;28;20047;-87
2022/12/07 03:46:35;;;;;;;12.40;2.40;;;;;;;4.14;100.00;101928.59;5090300;28;20094;-87
2022/12/07 03:49:16;;;;;;;;;;;;;;;4.50;100.00;101924.53;5103129;28;20508;-87
2022/12/07 03:51:46;;;;;;;11.00;2.53;;;;;;;4.34;100.00;101940.84;5093087;28;19920;-87
2022/12/07 03:54:21;;;;;;;9.52;2.72;;;;;;;4.30;100.00;101945.16;5092396;28;20051;-87
2022/12/07 03:56:50;;;;;;;8.05;1.98;;;;;;;4.01;100.00;101920.72;5092283;28;20051;-88
2022/12/07 03:59:18;;;;;;;6.63;1.92;;;;;;;4.28;100.00;101896.72;5093727;28;20052;-88
2022/12/07 04:01:53;;;;;;;14.15;2.50;;;;;;;4.43;100.00;101896.81;5090342;28;20041;-88
2022/12/07 04:04:21;;;;;;;9.50;2.50;;;;;;;4.26;100.00;101878.56;5087478;28;20055;-87
2022/12/07 04:06:48;;;;;;;7.55;2.00;;;;;;;4.28;100.00;101874.25;5104110;28;20102;-87
2022/12/07 04:09:16;;;;;;;8.63;1.88;;;;;;;4.21;100.00;101862.09;5085147;28;20044;-87
2022/12/07 04:11:43;;;;;;;6.75;1.90;;;;;;;4.31;100.00;101871.69;5093538;28;20105;-87
2022/12/07 04:14:18;;;;;;;9.88;2.20;;;;;;;4.08;100.00;101847.34;5093324;28;20779;-86
2022/12/07 04:16:49;;;;;;;6.43;2.05;;;;;;;4.25;100.00;101879.44;5090960;28;20098;-86
2022/12/07 04:19:18;;;;;;;8.23;1.73;;;;;;;4.32;100.00;101873.44;5086264;28;20051;-86
2022/12/07 04:21:45;;;;;;;8.43;1.92;;;;;;;4.24;100.00;101877.69;5089608;28;20065;-86
2022/12/07 04:24:14;;;;;;;14.43;2.72;;;;;;;3.72;100.00;101825.44;5100501;28;20470;-86
2022/12/07 04:26:41;;;;;;;7.18;1.88;;;;;;;4.01;100.00;101876.66;5089019;28;20101;-86
2022/12/07 04:29:09;;;;;;;14.85;2.83;;;;;;;4.03;100.00;101882.72;5083840;28;20055;-86
2022/12/07 04:31:36;;;;;;;7.38;2.10;;;;;;;4.13;100.00;101869.81;5091488;28;20440;-86
2022/12/07 04:34:05;;;;;;;6.90;2.05;;;;;;;4.07;100.00;101859.44;5091801;28;20126;-86
2022/12/07 04:36:32;;;;;;;7.20;2.58;;;;;;;3.88;100.00;101850.63;5092863;28;20462;-86
2022/12/07 04:38:59;;;;;;;7.05;2.10;;;;;;;3.81;100.00;101843.69;5091780;28;20093;-86
2022/12/07 04:41:29;;;;;;;8.80;1.85;;;;;;;3.70;100.00;101846.19;5092669;28;20473;-86
2022/12/07 04:44:00;;;;;;;8.52;2.00;;;;;;;3.96;100.00;101848.09;5091619;28;20465;-86
2022/12/07 04:46:29;;;;;;;8.80;2.10;;;;;;;3.90;100.00;101861.88;5095278;28;20060;-86
2022/12/07 04:48:56;;;;;;;10.20;2.13;;;;;;;3.93;100.00;101853.25;5091466;28;20040;-86
2022/12/07 04:51:26;;;;;;;9.82;2.00;;;;;;;3.65;100.00;101839.19;5092901;28;20454;-86
2022/12/07 04:53:53;;;;;;;11.50;2.47;;;;;;;3.80;100.00;101841.94;5091056;28;20040;-86
2022/12/07 04:56:21;;;;;;;6.35;2.20;;;;;;;3.88;100.00;101835.09;5091298;28;20447;-86
2022/12/07 04:58:49;;;;;;;10.00;2.78;;;;;;;3.49;100.00;101805.41;5090224;28;20063;-86
2022/12/07 05:01:17;;;;;;;9.20;2.10;;;;;;;3.90;100.00;101837.69;5092419;28;20052;-86
2022/12/07 05:03:43;;;;;;;8.90;2.08;;;;;;;4.03;100.00;101830.88;5092231;28;20410;-86
2022/12/07 05:06:11;;;;;;;8.52;2.58;;;;;;;4.19;100.00;101845.66;5092106;28;20477;-86
2022/12/07 05:08:39;;;;;;;13.45;2.28;;;;;;;4.01;100.00;101836.03;5091376;28;20597;-86
2022/12/07 05:11:07;;;;;;;5.38;1.65;;;;;;;3.95;100.00;101833.44;5090855;28;20460;-86
2022/12/07 05:13:35;;;;;;;10.00;2.47;;;;;;;3.68;100.00;101837.50;5090706;28;20048;-86
2022/12/07 05:16:03;;;;;;;9.48;2.10;;;;;;;3.95;100.00;101833.44;5091181;28;20493;-86
2022/12/07 05:18:30;;;;;;;8.13;1.95;;;;;;;3.71;100.00;101793.50;5091540;28;20097;-86
2022/12/07 05:20:56;;;;;;;8.18;1.85;;;;;;;3.78;100.00;101789.25;5091032;28;20810;-86
2022/12/07 05:23:23;;;;;;;7.20;2.03;;;;;;;3.68;100.00;101788.28;5091678;28;20048;-86
2022/12/07 05:25:50;;;;;;;8.93;2.20;;;;;;;4.06;100.00;101833.50;5091736;28;20481;-86
2022/12/07 05:28:17;;;;;;;9.57;2.65;;;;;;;3.87;100.00;101824.72;5090075;28;20366;-86
2022/12/07 05:30:43;;;;;;;13.10;2.15;;;;;;;3.57;100.00;101793.38;5087033;28;20474;-86
2022/12/07 05:33:10;;;;;;;6.68;1.60;;;;;;;3.85;100.00;101803.13;5089442;28;20040;-86
2022/12/07 05:35:37;;;;;;;8.05;1.80;;;;;;;3.98;100.00;101823.06;5086999;28;20477;-86
2022/12/07 05:38:04;;;;;;;5.20;1.70;;;;;;;3.76;100.00;101767.66;5085898;28;20398;-86
2022/12/07 05:40:31;;;;;;;6.38;1.70;;;;;;;4.01;100.00;101758.31;5080533;28;20057;-86
2022/12/07 05:42:57;;;;;;;8.25;2.03;;;;;;;4.07;100.00;101806.72;5088768;28;20051;-87
2022/12/07 05:45:29;;;;;;;10.52;2.10;;;;;;;3.97;100.00;101790.25;5095628;28;20062;-87
2022/12/07 05:47:56;;;;;;;9.15;1.92;;;;;;;4.01;100.00;101797.16;5086662;28;20052;-86
2022/12/07 05:50:23;;;;;;;6.53;2.00;;;;;;;3.95;100.00;101812.69;5088417;28;20511;-87
2022/12/07 05:52:50;;;;;;;6.18;1.80;;;;;;;4.03;100.00;101807.56;5084513;28;20057;-87
2022/12/07 05:55:17;;;;;;;5.68;1.60;;;;;;;4.05;100.00;101805.84;5101887;28;20052;-86
2022/12/07 05:59:22;;;;;;;9.32;2.22;;;;;;;3.94;100.00;101795.41;5083596;28;20455;-87
2022/12/07 06:00:31;;;;;;;11.13;2.45;;;;;;;4.14;100.00;101814.56;5084943;28;20052;-87
2022/12/07 06:02:57;;;;;;;7.93;1.70;;;;;;;4.08;100.00;101787.72;5087256;28;20670;-86
2022/12/07 06:05:25;;;;;;;7.95;1.50;;;;;;;4.18;100.00;101794.69;5083993;28;20123;-86
2022/12/07 06:07:51;;;;;;;8.68;1.85;;;;;;;3.93;100.00;101758.25;5086898;28;20425;-86
2022/12/07 06:10:18;;;;;;;5.78;2.08;;;;;;;4.02;100.00;101743.59;5087688;28;20048;-86
2022/12/07 06:12:46;;;;;;;6.38;1.80;;;;;;;3.84;100.00;101734.88;5089127;28;20053;-85
2022/12/07 06:15:13;;;;;;;10.65;2.38;;;;;;;4.03;100.00;101755.72;5088853;28;21338;-86
2022/12/07 06:17:39;;;;;;;10.07;2.60;;;;;;;4.21;100.00;101773.09;5082373;28;20056;-86
2022/12/07 06:20:07;;;;;;;7.50;1.70;;;;;;;4.17;100.00;101778.25;5086350;28;20044;-86
2022/12/07 06:22:33;;;;;;;8.68;2.53;;;;;;;4.13;100.00;101778.25;5086572;28;20448;-86
2022/12/07 06:25:01;;;;;;;5.18;1.67;;;;;;;4.07;100.00;101767.81;5084657;28;20048;-86
2022/12/07 06:27:35;;;;;;;4.35;1.42;;;;;;;4.01;100.00;101762.63;5086827;28;20052;-86
2022/12/07 06:30:06;;;;;;;8.40;1.80;;;;;;;3.99;100.00;101760.88;5090664;28;20426;-86
2022/12/07 06:32:34;;;;;;;5.78;1.70;;;;;;;4.17;100.00;101767.03;5088537;28;20044;-87
2022/12/07 06:35:01;;;;;;;11.27;2.40;;;;;;;4.21;100.00;101781.72;5090767;28;20047;-87
2022/12/07 06:37:27;;;;;;;7.63;1.88;;;;;;;4.01;100.00;101754.84;5091344;28;20477;-87
2022/12/07 06:39:54;;;;;;;9.32;2.28;;;;;;;4.14;100.00;101764.41;5090663;28;20117;-87
2022/12/07 06:42:21;;;;;;;9.00;4.10;;;;;;;4.05;100.00;101762.63;5083118;28;20052;-88
2022/12/07 06:44:48;;;;;;;4.38;1.67;;;;;;;4.17;100.00;101769.63;5089109;28;20048;-87
2022/12/07 06:47:15;;;;;;;11.23;2.15;;;;;;;3.78;100.00;101745.19;5088034;28;20047;-87
2022/12/07 06:50:03;;;;;;;8.95;2.15;;;;;;;4.06;100.00;101766.97;5089767;28;20754;-88
2022/12/07 06:52:30;;;;;;;7.13;1.77;;;;;;;3.88;100.00;101785.88;5090339;28;20481;-87
2022/12/07 06:54:58;;;;;;;8.23;2.13;;;;;;;3.91;100.00;101772.03;5092756;28;20053;-87
2022/12/07 06:57:25;;;;;;;8.15;2.20;;;;;;;3.96;100.00;101755.66;5087140;28;20093;-87
2022/12/07 06:59:52;;;;;;;5.68;1.88;;;;;;;4.09;100.00;101755.75;5105339;28;20117;-88
2022/12/07 07:02:19;;;;;;;5.82;2.13;;;;;;;3.99;100.00;101742.72;5092034;28;20055;-88
2022/12/07 07:04:46;;;;;;;9.40;1.95;;;;;;;3.95;100.00;101724.59;5091754;28;20473;-89
2022/12/07 07:07:12;;;;;;;6.03;2.05;;;;;;;4.12;100.00;101735.03;5089597;28;20044;-88
2022/12/07 07:09:39;;;;;;;10.27;1.90;;;;;;;4.08;100.00;101728.09;5090976;28;20501;-89
2022/12/07 07:12:06;;;;;;;9.32;2.15;;;;;;;4.12;100.00;101748.00;5083064;28;20075;-88
2022/12/07 07:14:33;;;;;;;8.50;2.60;;;;;;;3.97;100.00;101762.59;5089515;28;20135;-89
2022/12/07 07:16:59;;;;;;;9.45;1.88;;;;;;;4.12;100.00;101773.91;5090781;28;20048;-88
2022/12/07 07:19:26;;;;;;;10.15;2.03;;;;;;;4.07;100.00;101785.97;5088592;28;20052;-88
2022/12/07 07:21:53;;;;;;;10.70;3.35;;;;;;;4.00;100.00;101766.91;5091217;28;20052;-88
2022/12/07 07:24:20;;;;;;;7.32;1.80;;;;;;;3.93;100.00;101766.03;5086309;28;20042;-88
2022/12/07 07:26:46;;;;;;;6.55;1.90;;;;;;;3.76;100.00;101750.38;5086094;28;20052;-89
2022/12/07 07:29:13;;;;;;;7.95;1.83;;;;;;;3.70;100.00;101741.69;5084749;28;20059;-88
2022/12/07 07:31:40;;;;;;;4.28;1.50;;;;;;;3.69;100.00;101751.19;5087749;28;20051;-88
2022/12/07 07:34:07;;;;;;;6.57;1.77;;;;;;;3.71;100.00;101735.66;5089188;28;20105;-88
2022/12/07 07:36:34;;;;;;;7.43;1.50;;;;;;;3.53;100.00;101720.84;5101780;28;20056;-87
2022/12/07 07:39:14;;;;;;;4.70;1.60;;;;;;;3.36;100.00;101728.47;5116401;28;20066;-85
2022/12/07 07:41:55;;;;;;;8.07;3.13;;;;;;;3.12;100.00;101675.69;5109693;28;20086;-85
2022/12/07 07:44:36;;;;;;;8.52;1.88;;;;;;;3.52;100.00;101743.28;5106508;28;20020;-86
2022/12/07 07:47:17;;;;;;;8.43;1.90;;;;;;;3.32;100.00;101740.53;5106576;28;20042;-87
2022/12/07 07:49:57;;;;;;;15.55;2.42;;;;;;;2.91;100.00;101665.16;5110629;28;20620;-86
2022/12/07 07:52:38;;;;;;;8.70;2.03;;;;;;;3.49;100.00;101739.78;5128197;27;20040;-87
2022/12/07 07:55:19;;;;;;;17.13;2.30;;;;;;;3.37;100.00;101702.63;5109265;28;20044;-87
2022/12/07 07:58:00;;;;;;;6.75;2.22;;;;;;;3.13;100.00;101674.81;5113980;28;20067;-87
2022/12/07 08:00:41;;;;;;;11.23;2.63;;;;;;;3.25;100.00;101673.19;5111212;28;20043;-87
2022/12/07 08:03:21;;;;;;;9.07;2.17;;;;;;;3.42;100.00;101663.81;5110584;28;20737;-86
2022/12/07 08:06:03;;;;;;;6.43;1.75;;;;;;;3.77;100.00;101736.56;5104261;28;20063;-87
2022/12/07 08:08:30;;;;;;;8.27;2.13;;;;;;;3.42;100.00;101700.94;5105854;28;20039;-87
2022/12/07 08:11:11;;;;;;;6.68;2.13;;;;;;;3.33;100.00;101674.97;5106914;28;20054;-87
2022/12/07 08:13:52;;;;;;;6.75;2.03;;;;;;;3.48;100.00;101700.09;5108287;28;20048;-83
2022/12/07 08:16:32;;;;;;;10.30;2.25;;;;;;;3.65;100.00;101738.19;5097703;28;20139;-84
2022/12/07 08:19:13;;;;;;;10.70;2.83;;;;;;;3.33;100.00;101674.09;5124177;28;20559;-84
2022/12/07 08:21:55;;;;;;;7.80;2.28;;;;;;;3.74;100.00;101714.97;5111185;28;20091;-83
2022/12/07 08:24:36;;;;;;;10.48;2.58;;;;;;;4.05;100.00;101739.31;5109065;28;20120;-84
2022/12/07 08:27:08;;;;;;;8.32;2.22;;;;;;;3.78;100.00;101707.19;5102559;28;20052;-81
2022/12/07 08:29:48;;;;;;;9.50;1.77;;;;;;;3.71;100.00;101708.03;5104628;28;20036;-83
2022/12/07 08:32:29;;;;;;;8.48;1.90;;;;;;;3.87;100.00;101719.34;5102192;28;20032;-84
2022/12/07 08:35:10;;;;;;;8.57;1.92;;;;;;;3.70;100.00;101705.41;5110804;28;20048;-83
2022/12/07 08:37:50;;;;;;;28.77;3.17;;;;;;;3.24;100.00;101646.44;5110201;28;20043;-85
2022/12/07 08:40:21;;;;;;;8.90;1.70;;;;;;;3.69;100.00;101706.28;5109135;28;20058;-83
2022/12/07 08:43:02;;;;;;;7.97;2.00;;;;;;;3.70;100.00;101703.72;5110578;28;20048;-85
2022/12/07 08:45:42;;;;;;;5.55;1.77;;;;;;;3.34;100.00;101632.69;5123564;28;20055;-85
2022/12/07 08:48:24;;;;;;;6.28;1.80;;;;;;;3.60;100.00;101658.75;5108427;28;20046;-85
2022/12/07 08:51:05;;;;;;;6.38;2.20;;;;;;;3.70;100.00;101684.69;5098540;28;20086;-83
2022/12/07 08:53:42;;;;;;;5.97;1.70;;;;;;;3.48;100.00;101663.00;5110972;28;20044;-83
2022/12/07 08:56:22;;;;;;;11.00;2.40;;;;;;;3.33;100.00;101661.16;5109704;28;20040;-85
2022/12/07 08:58:58;;;;;;;11.75;2.65;;;;;;;3.41;100.00;101660.34;5095450;28;20052;-84
2022/12/07 09:01:25;;;;;;;8.15;2.10;;;;;;;3.29;100.00;101636.97;5108923;28;20058;-82
2022/12/07 09:04:06;;;;;;;7.60;2.10;;;;;;;3.45;100.00;101657.78;5108890;28;20048;-84
2022/12/07 09:06:47;;;;;;;6.25;2.08;;;;;;;3.52;100.00;101668.19;5106981;28;20052;-84
2022/12/07 09:09:27;;;;;;;6.93;2.22;;;;;;;3.40;100.00;101650.00;5111779;28;20481;-85
2022/12/07 09:11:57;;;;;;;9.10;3.13;;;;;;;3.15;100.00;101613.59;5109186;28;20044;-84
2022/12/07 09:14:38;;;;;;;7.75;2.67;;;;;;;3.44;100.00;101650.91;5093004;28;20093;-83
2022/12/07 09:17:07;;;;;;;10.88;1.92;;;;;;;3.18;100.00;101629.13;5108787;28;20473;-83
2022/12/07 09:19:35;;;;;;;9.27;2.30;;;;;;;3.12;100.00;101605.81;5108819;28;20051;-84
2022/12/07 09:22:06;;;;;;;11.00;3.45;;;;;;;3.05;100.00;101601.44;5097861;28;20044;-84
2022/12/07 09:24:37;;;;;;;6.75;1.90;;;;;;;3.22;100.00;101601.53;5093253;28;20051;-85
2022/12/07 09:27:05;;;;;;;9.27;2.08;;;;;;;3.63;100.00;101676.03;5107054;28;20078;-84
2022/12/07 09:29:33;;;;;;;11.60;2.55;;;;;;;3.36;100.00;101661.19;5107865;28;20074;-85
2022/12/07 09:32:00;;;;;;;6.35;2.03;;;;;;;3.03;100.00;101601.44;5125006;28;20473;-84
2022/12/07 09:34:41;;;;;;;13.15;3.40;;;;;;;3.53;100.00;101682.00;5091605;28;20059;-83
2022/12/07 09:37:09;;;;;;;11.98;2.47;;;;;;;3.15;100.00;101628.25;5102417;28;20113;-84
2022/12/07 09:39:40;;;;;;;9.18;2.45;;;;;;;3.09;100.00;101623.88;5107332;28;20050;-80
2022/12/07 09:42:32;;;;;;;7.47;2.38;;;;;;;3.40;100.00;101656.03;5107831;28;20048;-85
2022/12/07 09:45:00;;;;;;;9.98;2.08;;;;;;;3.42;100.00;101627.56;5100856;28;20055;-85
2022/12/07 09:47:41;;;;;;;8.82;2.28;;;;;;;3.62;100.00;101669.13;5094265;28;20086;-84
2022/12/07 09:50:17;;;;;;;7.07;2.15;;;;;;;3.47;100.00;101640.53;5107867;28;20052;-84
2022/12/07 09:52:45;;;;;;;13.88;2.97;;;;;;;3.66;100.00;101664.81;5107023;28;20056;-85
2022/12/07 09:55:20;;;;;;;10.18;2.65;;;;;;;3.57;100.00;101631.97;5107590;28;20051;-85
2022/12/07 09:57:47;;;;;;;9.07;1.90;;;;;;;3.82;100.00;101660.59;5106007;28;20068;-84
2022/12/07 10:00:23;;;;;;;10.50;2.45;;;;;;;3.66;100.00;101621.66;5106072;28;20064;-85
2022/12/07 10:02:59;;;;;;;11.55;2.13;;;;;;;4.02;100.00;101663.28;5097829;28;20048;-85
2022/12/07 10:05:38;;;;;;;10.57;3.15;;;;;;;3.86;100.00;101611.41;5108311;28;20461;-83
2022/12/07 10:08:11;;;;;;;13.35;2.10;;;;;;;4.24;100.00;101674.59;5098224;28;20052;-82
2022/12/07 10:10:39;;;;;;;6.75;1.80;;;;;;;4.43;100.00;101650.47;5108604;28;20047;-85
2022/12/07 10:13:12;;;;;;;8.98;2.10;;;;;;;4.43;100.00;101653.06;5106197;28;20028;-83
2022/12/07 10:15:45;;;;;;;7.72;2.25;;;;;;;4.44;100.00;101646.13;5103448;28;20055;-83
2022/12/07 10:18:18;;;;;;;6.85;2.20;;;;;;;4.29;100.00;101668.56;5101041;28;20074;-84
2022/12/07 10:20:47;;;;;;;11.98;2.30;;;;;;;4.11;100.00;101640.00;5110003;28;20063;-84
2022/12/07 10:23:18;;;;;;;8.68;2.00;;;;;;;4.21;100.00;101641.75;5112043;28;20119;-85
2022/12/07 10:25:47;;;;;;;11.13;2.80;;;;;;;4.09;100.00;101626.16;5109472;28;20036;-84
2022/12/07 10:28:18;;;;;;;10.60;3.55;;;;;;;4.08;100.00;101617.50;5110970;28;20059;-85
2022/12/07 10:31:03;;;;;;;9.75;2.05;;;;;;;4.36;100.00;101644.38;5110811;28;20060;-85
2022/12/07 10:33:47;;;;;;;9.45;1.95;;;;;;;4.24;100.00;101627.94;5110328;28;20245;-85
2022/12/07 10:36:17;;;;;;;10.02;2.15;;;;;;;4.17;100.00;101640.00;5111903;28;20905;-86
2022/12/07 10:38:51;;;;;;;10.05;2.83;;;;;;;3.75;100.00;101602.69;5106940;28;20058;-85
2022/12/07 10:41:31;;;;;;;7.78;2.85;;;;;;;3.97;100.00;101643.41;5111061;28;20056;-85
2022/12/07 10:44:22;;;;;;;14.45;3.00;;;;;;;4.13;100.00;101615.81;5113661;28;20048;-86
2022/12/07 10:47:15;;;;;;;6.72;2.05;;;;;;;4.18;100.00;101623.63;5111832;28;20050;-85
2022/12/07 10:49:44;;;;;;;7.43;1.88;;;;;;;4.14;100.00;101590.75;5111305;28;20032;-85
2022/12/07 10:52:47;;;;;;;13.40;2.58;;;;;;;4.41;100.00;101615.88;5101193;28;20127;-85
2022/12/07 10:55:52;;;;;;;12.90;2.25;;;;;;;4.28;100.00;101585.59;5107483;28;20040;-85
2022/12/07 10:58:37;;;;;;;9.55;2.53;;;;;;;4.15;100.00;101557.06;5108202;28;20036;-82
2022/12/07 11:01:28;;;;;;;9.25;2.20;;;;;;;4.40;100.00;101597.72;5111122;28;20128;-84
2022/12/07 11:04:49;;;;;;;7.80;1.90;;;;;;;4.35;100.00;101592.53;5109782;28;20028;-85
2022/12/07 11:07:38;;;;;;;6.32;1.65;;;;;;;4.27;100.00;101594.25;5096570;28;20051;-84
2022/12/07 11:10:18;;;;;;;7.47;1.80;;;;;;;4.23;100.00;101588.16;5094408;28;20059;-85
2022/12/07 11:13:16;;;;;;;9.98;1.70;;;;;;;4.44;100.00;101589.94;5107455;28;20047;-83
2022/12/07 11:16:08;;;;;;;6.15;1.60;;;;;;;4.13;100.00;101538.06;5108268;28;20057;-84
2022/12/07 11:18:53;;;;;;;9.35;1.88;;;;;;;3.96;100.00;101513.81;5101186;28;20048;-84
2022/12/07 11:21:58;;;;;;;9.95;1.70;;;;;;;4.12;100.00;101504.34;5108282;28;20079;-83
2022/12/07 11:25:02;;;;;;;8.98;1.85;;;;;;;4.08;100.00;101506.06;5123708;28;20049;-84
2022/12/07 11:27:44;;;;;;;12.13;1.80;;;;;;;4.36;100.00;101557.97;5106546;28;20059;-84
2022/12/07 11:30:18;;;;;;;9.50;1.95;;;;;;;4.51;100.00;101547.59;5095635;28;20047;-84
2022/12/07 11:32:50;;;;;;;8.80;2.67;;;;;;;4.55;100.00;101551.94;5103263;28;20382;-84
2022/12/07 11:35:45;;;;;;;9.73;2.30;;;;;;;4.34;100.00;101534.63;5108197;28;20501;-83
2022/12/07 11:38:17;;;;;;;8.18;1.73;;;;;;;4.25;100.00;101508.69;5105190;28;20063;-83
2022/12/07 11:40:55;;;;;;;7.68;1.92;;;;;;;4.11;100.00;101476.72;5107901;28;20464;-84
2022/12/07 11:43:30;;;;;;;14.63;3.92;;;;;;;4.47;100.00;101542.41;5107622;28;20052;-83
2022/12/07 11:46:08;;;;;;;7.28;2.00;;;;;;;4.34;100.00;101516.47;5114352;28;20056;-84
2022/12/07 11:48:45;;;;;;;8.30;2.13;;;;;;;4.06;100.00;101468.06;5106126;28;20052;-83
2022/12/07 11:51:13;;;;;;;7.28;2.28;;;;;;;4.02;100.00;101449.06;5107032;28;20477;-82